Date,TemperatureHighF,TemperatureAvgF,TemperatureLowF,DewpointHighF,DewpointAvgF,DewpointLowF,HumidityHigh,HumidityAvg,HumidityLow,PressureMaxIn,PressureMinIn,WindSpeedMaxMPH,WindSpeedAvgMPH,GustSpeedMaxMPH,PrecipitationSumIn
2013-5-1,85.4,69.9,50.5,27.7,14.2,-2.2,41,13,6,30.02,29.63,7,2,16,0.00
2013-5-2,63.7,50.6,38.6,27.3,16.7,11.0,48,28,13,30.43,30.02,6,2,19,0.00
2013-5-3,69.2,53.0,35.4,16.7,12.9,7.7,38,22,9,30.44,30.01,5,2,14,0.00
2013-5-4,78.8,61.3,38.8,15.4,11.1,7.0,35,16,7,30.02,29.79,8,2,17,0.00
2013-5-5,76.8,62.2,50.9,30.6,19.0,9.7,25,19,13,30.03,29.87,11,5,23,0.00
2013-5-6,71.4,63.3,54.0,38.1,25.7,15.1,44,25,17,29.92,29.83,8,3,22,0.00
2013-5-7,79.0,63.4,44.9,38.9,29.4,22.1,60,30,13,29.96,29.74,9,2,15,0.00
2013-5-8,73.7,61.9,45.5,33.0,24.5,14.1,57,27,11,29.94,29.81,6,2,13,0.00
2013-5-9,74.4,61.6,45.3,34.5,24.2,18.3,44,25,13,30.04,29.87,5,2,11,0.00
2013-5-10,69.2,59.4,50.7,43.4,35.1,31.5,60,41,26,30.23,30.00,6,2,10,0.01
2013-5-11,74.3,59.0,45.5,43.0,35.8,26.9,78,46,19,30.29,30.21,5,1,12,0.00
2013-5-12,82.9,63.0,41.8,34.8,31.4,26.0,66,35,14,30.31,30.05,3,1,7,0.00
2013-5-13,85.5,68.6,49.1,33.3,28.8,25.6,47,25,12,30.18,29.95,5,1,10,0.00
2013-5-14,89.2,69.8,50.2,48.6,27.4,15.6,61,24,10,30.00,29.72,7,1,20,0.05
2013-5-15,89.7,73.0,60.2,45.7,36.4,21.9,56,31,11,29.84,29.64,6,1,16,0.00
2013-5-16,89.4,73.0,54.7,27.7,20.0,8.4,30,16,5,29.84,29.64,7,1,20,0.00
2013-5-17,90.0,72.3,51.7,29.1,21.0,12.4,35,16,7,29.86,29.64,10,2,22,0.00
2013-5-18,81.2,68.3,51.5,29.3,21.0,12.7,34,17,11,29.82,29.61,5,1,10,0.00
2013-5-19,79.7,66.6,57.8,34.5,29.3,18.0,40,26,11,29.80,29.69,7,2,17,0.00
2013-5-20,81.9,65.3,51.2,34.4,27.0,6.1,48,27,6,29.87,29.69,7,2,14,0.00
2013-5-21,86.5,65.9,49.4,33.7,28.4,20.1,48,28,9,29.95,29.73,4,1,10,0.00
2013-5-22,92.4,72.5,52.2,28.1,21.5,13.1,36,17,6,29.82,29.60,3,0,7,0.00
2013-5-23,98.0,76.8,57.3,47.8,21.1,11.9,38,14,5,29.80,29.59,4,0,7,0.03
2013-5-24,92.7,76.6,63.1,48.1,33.0,19.6,45,24,9,29.86,29.67,3,1,12,0.00
2013-5-25,95.4,76.2,55.5,39.4,22.6,8.4,34,15,5,29.89,29.63,2,0,6,0.00
2013-5-26,91.8,75.8,56.3,27.9,16.2,2.0,30,12,4,29.86,29.64,2,0,6,0.00
2013-5-27,89.7,72.2,57.5,25.3,15.1,4.8,26,12,4,29.82,29.64,3,0,9,0.00
2013-5-28,87.8,72.4,52.4,24.9,16.6,3.1,30,14,4,29.69,29.43,2,0,6,0.00
2013-5-29,83.3,72.7,61.5,36.1,22.8,7.1,34,17,6,29.58,29.42,4,1,16,0.00
2013-5-30,89.6,74.3,54.4,30.4,22.6,15.7,30,16,8,29.73,29.56,4,1,10,0.00
2013-5-31,87.5,76.8,64.8,37.5,25.9,4.9,34,17,7,29.77,29.62,8,3,18,0.00